Time;durP1;ratioP1;P1;durP2;ratioP2;P2;SDS_P1;SDS_P2;PMS_P1;PMS_P2;Temp;Humidity;BMP_temperature;BMP_pressure;BME280_temperature;BME280_humidity;BME280_pressure;Samples;Min_cycle;Max_cycle;Signal;HPM_P1;HPM_P2
2023/03/03 00:00:23;;;;;;;24.60;15.10;;;;;;;1.27;65.86;100717.92;108057;1257;73206;-64
2023/03/03 00:02:52;;;;;;;23.60;14.60;;;;;;;1.26;65.82;100715.81;108055;1259;72301;-64
2023/03/03 00:05:21;;;;;;;26.20;15.00;;;;;;;1.26;66.12;100713.87;108058;1260;72594;-64
2023/03/03 00:07:49;;;;;;;24.20;15.30;;;;;;;1.31;66.19;100707.95;107837;1255;61250;-64
2023/03/03 00:10:19;;;;;;;24.80;14.70;;;;;;;1.39;66.12;100703.91;108022;1259;61138;-64
2023/03/03 00:12:48;;;;;;;26.60;14.70;;;;;;;1.50;66.25;100703.14;108070;1259;75393;-64
2023/03/03 00:15:19;;;;;;;26.90;15.50;;;;;;;1.57;66.35;100699.78;108035;1258;73676;-63
2023/03/03 00:17:49;;;;;;;22.90;14.40;;;;;;;1.62;66.31;100696.56;107911;1257;72024;-66
2023/03/03 00:20:23;;;;;;;25.20;14.10;;;;;;;1.68;66.29;100696.59;107858;1256;62126;-65
2023/03/03 00:22:52;;;;;;;24.90;14.80;;;;;;;1.74;66.18;100689.89;107937;1260;61218;-65
2023/03/03 00:25:29;;;;;;;22.20;14.80;;;;;;;1.81;66.05;100680.80;108011;1257;75620;-64
2023/03/03 00:28:26;;;;;;;24.80;14.90;;;;;;;1.88;66.16;100680.64;108007;1258;73978;-64
2023/03/03 00:30:59;;;;;;;26.50;15.10;;;;;;;1.95;65.92;100673.65;107917;1256;71918;-63
2023/03/03 00:33:33;;;;;;;26.20;15.50;;;;;;;2.01;65.95;100668.13;108094;1256;61968;-63
2023/03/03 00:36:36;;;;;;;25.30;15.10;;;;;;;2.06;65.78;100669.23;107906;1256;61310;-64
2023/03/03 00:39:30;;;;;;;28.20;16.70;;;;;;;2.09;65.70;100662.31;107816;1257;73756;-64
2023/03/03 00:41:59;;;;;;;26.10;16.10;;;;;;;2.16;65.82;100659.09;107817;1258;72494;-64
2023/03/03 00:44:44;;;;;;;24.40;15.60;;;;;;;2.21;65.81;100656.27;108038;1257;72121;-64
2023/03/03 00:47:51;;;;;;;24.40;14.90;;;;;;;2.28;65.40;100653.11;108068;1260;61101;-64
2023/03/03 00:50:33;;;;;;;27.60;14.80;;;;;;;2.33;65.11;100658.19;107461;1263;61141;-64
2023/03/03 00:53:10;;;;;;;22.80;14.70;;;;;;;2.33;65.13;100645.94;107992;1257;75014;-65
2023/03/03 00:55:39;;;;;;;26.60;16.20;;;;;;;2.31;64.98;100643.95;108056;1260;71524;-64
2023/03/03 00:58:08;;;;;;;25.10;16.30;;;;;;;2.29;65.06;100638.75;108028;1257;73587;-65
2023/03/03 01:00:40;;;;;;;27.50;16.20;;;;;;;2.29;65.27;100640.27;108042;1256;61141;-64
2023/03/03 01:03:13;;;;;;;24.10;15.10;;;;;;;2.31;65.05;100638.08;108018;1260;61129;-63
2023/03/03 01:05:43;;;;;;;23.90;15.10;;;;;;;2.31;65.13;100632.48;108104;1257;73639;-63
2023/03/03 01:08:12;;;;;;;25.10;15.50;;;;;;;2.30;65.00;100628.10;108084;1256;72302;-63
2023/03/03 01:10:51;;;;;;;25.60;15.80;;;;;;;2.27;65.01;100624.53;108000;1256;71796;-63
2023/03/03 01:13:25;;;;;;;24.60;15.30;;;;;;;2.28;65.18;100627.13;108043;1260;61677;-63
2023/03/03 01:15:54;;;;;;;26.50;15.60;;;;;;;2.27;65.27;100624.77;108010;1257;61289;-64
2023/03/03 01:18:23;;;;;;;28.70;15.70;;;;;;;2.28;65.37;100620.23;107966;1256;75455;-65
2023/03/03 01:20:52;;;;;;;26.20;15.90;;;;;;;2.34;65.57;100616.67;107937;1260;73217;-63
2023/03/03 01:23:27;;;;;;;25.20;16.20;;;;;;;2.42;65.37;100617.36;107925;1260;73407;-64
2023/03/03 01:25:57;;;;;;;24.60;16.20;;;;;;;2.47;65.20;100613.04;107817;1257;61109;-63
2023/03/03 01:28:25;;;;;;;27.60;16.40;;;;;;;2.50;65.27;100611.65;108054;1255;61194;-64
2023/03/03 01:30:54;;;;;;;23.30;15.50;;;;;;;2.53;65.17;100612.02;108062;1257;73975;-63
2023/03/03 01:33:22;;;;;;;26.40;16.40;;;;;;;2.54;65.16;100610.36;108069;1257;73207;-64
2023/03/03 01:35:50;;;;;;;26.00;16.70;;;;;;;2.53;65.05;100604.15;108036;1257;72100;-64
2023/03/03 01:38:19;;;;;;;27.30;16.30;;;;;;;2.53;65.21;100604.27;108079;1257;61218;-64
2023/03/03 01:40:53;;;;;;;24.20;15.70;;;;;;;2.52;65.17;100605.29;108073;1257;61349;-64
2023/03/03 01:43:22;;;;;;;26.70;16.80;;;;;;;2.52;65.06;100601.71;108075;1260;75688;-65
2023/03/03 01:45:52;;;;;;;27.50;16.60;;;;;;;2.55;64.91;100601.88;108062;1257;72992;-64
2023/03/03 01:48:24;;;;;;;25.30;16.10;;;;;;;2.55;65.21;100593.96;108053;1256;72916;-64
2023/03/03 01:50:58;;;;;;;24.00;14.70;;;;;;;2.58;65.08;100592.98;107949;1258;61205;-63
2023/03/03 01:53:47;;;;;;;23.10;15.30;;;;;;;2.62;65.29;100585.61;107709;1256;61386;-63
2023/03/03 01:56:15;;;;;;;23.90;14.90;;;;;;;2.68;65.25;100583.73;107690;1257;75526;-63
2023/03/03 01:59:00;;;;;;;25.60;15.60;;;;;;;2.71;65.13;100585.89;107885;1257;72211;-63
2023/03/03 02:01:28;;;;;;;25.70;14.70;;;;;;;2.74;64.96;100583.45;107849;1260;73012;-63
2023/03/03 02:03:59;;;;;;;24.80;14.70;;;;;;;2.74;65.07;100587.30;107860;1256;61235;-63
2023/03/03 02:06:38;;;;;;;21.40;14.30;;;;;;;2.65;65.48;100579.94;108073;1260;61123;-64
2023/03/03 02:09:11;;;;;;;20.70;13.60;;;;;;;2.66;65.75;100580.95;107785;1257;74211;-64
2023/03/03 02:11:42;;;;;;;24.40;14.80;;;;;;;2.70;65.70;100574.24;108020;1260;73750;-63
2023/03/03 02:14:12;;;;;;;24.40;15.10;;;;;;;2.75;65.78;100570.55;107819;1257;72864;-64
2023/03/03 02:16:44;;;;;;;21.90;14.10;;;;;;;2.81;65.76;100568.19;107976;1258;61356;-64
2023/03/03 02:19:52;;;;;;;25.70;16.00;;;;;;;2.86;65.89;100566.71;107967;1256;61703;-64
2023/03/03 02:22:31;;;;;;;23.20;13.90;;;;;;;2.92;65.75;100565.32;108000;1257;73840;-63
2023/03/03 02:25:01;;;;;;;21.60;14.40;;;;;;;2.95;65.90;100564.42;107932;1257;72015;-63
2023/03/03 02:27:37;;;;;;;21.50;13.10;;;;;;;3.00;65.86;100562.79;107933;1257;71873;-64
2023/03/03 02:30:22;;;;;;;22.20;14.20;;;;;;;3.06;65.88;100561.52;107784;1257;61221;-64
2023/03/03 02:32:50;;;;;;;20.50;12.20;;;;;;;3.12;65.90;100563.20;107973;1256;61142;-64
2023/03/03 02:35:30;;;;;;;20.90;13.30;;;;;;;3.19;65.65;100560.18;107949;1257;75488;-64
2023/03/03 02:38:54;;;;;;;19.90;12.80;;;;;;;3.24;65.70;100559.30;107822;1257;71810;-63
2023/03/03 02:41:57;;;;;;;19.10;11.20;;;;;;;3.26;65.59;100553.70;107454;1264;72166;-64
2023/03/03 02:44:31;;;;;;;18.20;11.60;;;;;;;3.27;65.57;100553.21;107738;1256;61154;-64
2023/03/03 02:47:00;;;;;;;18.90;12.20;;;;;;;3.24;65.51;100548.51;107881;1257;61055;-64
2023/03/03 02:49:31;;;;;;;17.10;11.50;;;;;;;3.25;65.54;100547.21;107867;1257;74810;-64
2023/03/03 02:51:59;;;;;;;18.10;11.00;;;;;;;3.26;65.45;100547.21;107998;1260;71111;-64
2023/03/03 02:54:31;;;;;;;17.50;11.20;;;;;;;3.22;65.45;100547.38;107794;1258;71691;-64
2023/03/03 02:57:01;;;;;;;16.10;10.30;;;;;;;3.22;65.56;100547.41;107825;1256;61211;-64
2023/03/03 02:59:29;;;;;;;17.70;11.50;;;;;;;3.23;65.56;100546.61;108045;1256;61157;-63
2023/03/03 03:02:01;;;;;;;;;;;;;;;3.22;65.51;100544.02;108076;1257;74878;-63
2023/03/03 03:04:30;;;;;;;19.00;11.70;;;;;;;3.26;65.55;100539.97;108062;1257;72478;-64
2023/03/03 03:07:01;;;;;;;20.60;12.00;;;;;;;3.29;65.67;100536.75;108069;1257;71905;-64
2023/03/03 03:09:32;;;;;;;20.50;12.50;;;;;;;3.30;65.33;100534.35;108022;1254;62414;-64
2023/03/03 03:12:02;;;;;;;18.50;11.60;;;;;;;3.27;65.38;100533.46;107872;1256;61156;-64
2023/03/03 03:14:33;;;;;;;19.70;11.10;;;;;;;3.24;65.37;100531.61;108082;1257;73615;-63
2023/03/03 03:17:02;;;;;;;18.80;11.50;;;;;;;3.23;65.43;100529.42;108094;1257;73354;-64
2023/03/03 03:19:30;;;;;;;20.40;11.90;;;;;;;3.24;65.57;100525.77;107848;1257;72319;-64
2023/03/03 03:22:03;;;;;;;17.70;10.80;;;;;;;3.27;65.39;100524.58;108086;1257;61129;-63
2023/03/03 03:24:34;;;;;;;16.80;10.70;;;;;;;3.28;65.35;100523.84;108039;1257;62048;-64
2023/03/03 03:27:07;;;;;;;17.70;11.40;;;;;;;3.30;65.41;100522.70;108095;1257;75705;-65
2023/03/03 03:29:37;;;;;;;19.70;11.90;;;;;;;3.34;65.45;100520.08;107774;1261;72907;-63
2023/03/03 03:32:05;;;;;;;16.00;10.80;;;;;;;3.35;65.35;100521.90;108058;1259;71191;-64
2023/03/03 03:34:34;;;;;;;15.60;9.70;;;;;;;3.33;65.29;100518.98;107830;1255;61339;-64
2023/03/03 03:37:12;;;;;;;16.10;10.50;;;;;;;3.31;65.27;100521.19;104175;1257;5219232;-63
2023/03/03 03:39:57;;;;;;;15.80;10.60;;;;;;;3.30;65.23;100517.10;107989;1259;73894;-63
2023/03/03 03:42:26;;;;;;;15.30;10.00;;;;;;;3.29;65.38;100514.09;108038;1259;72892;-63
2023/03/03 03:44:56;;;;;;;15.90;10.60;;;;;;;3.30;65.32;100510.27;107828;1257;61268;-63
2023/03/03 03:47:24;;;;;;;15.70;9.10;;;;;;;3.34;65.38;100510.64;108133;1255;61353;-63
2023/03/03 03:49:53;;;;;;;16.20;9.90;;;;;;;3.37;65.37;100506.22;108064;1257;75268;-63
2023/03/03 03:52:21;;;;;;;16.20;10.40;;;;;;;3.39;65.22;100500.64;108074;1257;73004;-63
2023/03/03 03:54:50;;;;;;;16.60;10.50;;;;;;;3.41;65.39;100503.96;108066;1257;74181;-64
2023/03/03 03:57:19;;;;;;;14.50;9.80;;;;;;;3.41;65.07;100499.17;108092;1257;61256;-62
2023/03/03 04:00:11;;;;;;;16.30;10.20;;;;;;;3.39;65.17;100491.86;108107;1255;62435;-64
2023/03/03 04:02:44;;;;;;;16.50;10.30;;;;;;;3.37;65.12;100493.05;108165;1257;74138;-63
2023/03/03 04:05:13;;;;;;;15.00;9.40;;;;;;;3.39;65.13;100488.61;108119;1257;72555;-63
2023/03/03 04:07:44;;;;;;;15.90;10.70;;;;;;;3.41;65.06;100488.77;107882;1256;73012;-63
2023/03/03 04:10:16;;;;;;;16.00;10.20;;;;;;;3.42;65.06;100485.97;107893;1257;61921;-64
2023/03/03 04:12:45;;;;;;;16.40;9.80;;;;;;;3.48;65.01;100486.31;107983;1258;60660;-62
2023/03/03 04:15:15;;;;;;;17.10;11.10;;;;;;;3.52;65.08;100490.05;107961;1257;75033;-64
2023/03/03 04:17:46;;;;;;;16.00;10.20;;;;;;;3.55;64.94;100482.80;107896;1257;72769;-63
2023/03/03 04:20:15;;;;;;;17.00;11.00;;;;;;;3.59;64.92;100484.61;107864;1256;72648;-63
2023/03/03 04:22:46;;;;;;;18.10;11.40;;;;;;;3.62;64.81;100482.80;107899;1257;61862;-63
2023/03/03 04:25:16;;;;;;;19.10;11.70;;;;;;;3.63;64.61;100480.27;107913;1257;61150;-63
2023/03/03 04:27:49;;;;;;;22.30;12.90;;;;;;;3.63;64.58;100475.73;107901;1257;73686;-64
2023/03/03 04:30:20;;;;;;;17.60;11.80;;;;;;;3.62;64.50;100474.96;108063;1257;73851;-64
2023/03/03 04:32:50;;;;;;;18.40;12.50;;;;;;;3.62;64.61;100465.01;108048;1256;72634;-64
2023/03/03 04:35:20;;;;;;;20.00;12.80;;;;;;;3.62;64.61;100463.70;108054;1256;62028;-64
2023/03/03 04:37:48;;;;;;;20.70;12.80;;;;;;;3.63;64.58;100459.55;107910;1257;60277;-64
2023/03/03 04:40:17;;;;;;;19.40;12.20;;;;;;;3.64;64.49;100459.91;107888;1257;75744;-64
2023/03/03 04:42:47;;;;;;;17.00;10.70;;;;;;;3.62;64.56;100459.48;108088;1256;74507;-63
2023/03/03 04:45:22;;;;;;;19.00;12.40;;;;;;;3.59;64.34;100458.62;108056;1256;73572;-64
2023/03/03 04:47:50;;;;;;;18.10;11.70;;;;;;;3.57;64.60;100454.86;108120;1257;61128;-64
2023/03/03 04:50:23;;;;;;;17.60;11.60;;;;;;;3.58;64.49;100453.58;107848;1256;61112;-62
2023/03/03 04:52:54;;;;;;;15.10;10.00;;;;;;;3.60;64.62;100457.19;108115;1257;73560;-63
2023/03/03 04:55:22;;;;;;;17.10;10.50;;;;;;;3.61;64.43;100453.35;108090;1257;70929;-63
2023/03/03 04:57:52;;;;;;;15.70;10.50;;;;;;;3.58;64.54;100455.45;108012;1259;72070;-64
2023/03/03 05:00:21;;;;;;;15.20;10.10;;;;;;;3.56;64.35;100455.45;108040;1257;61205;-65
2023/03/03 05:02:49;;;;;;;17.20;10.90;;;;;;;3.51;64.45;100454.35;107932;1256;61071;-63
2023/03/03 05:05:19;;;;;;;19.40;11.20;;;;;;;3.48;64.64;100456.42;107786;1257;73529;-63
2023/03/03 05:07:47;;;;;;;17.00;11.00;;;;;;;3.49;64.77;100459.48;108007;1260;72981;-64
2023/03/03 05:10:15;;;;;;;18.90;11.30;;;;;;;3.49;64.72;100462.36;107966;1256;73859;-63
2023/03/03 05:12:44;;;;;;;17.10;11.10;;;;;;;3.47;64.86;100457.98;107950;1256;61419;-63
2023/03/03 05:15:15;;;;;;;18.00;11.00;;;;;;;3.49;64.84;100457.98;108011;1255;61064;-63
2023/03/03 05:17:44;;;;;;;15.40;10.70;;;;;;;3.54;64.92;100460.30;108102;1256;75607;-63
2023/03/03 05:20:14;;;;;;;18.00;11.80;;;;;;;3.58;64.96;100459.87;108034;1256;71556;-63
2023/03/03 05:22:43;;;;;;;16.40;10.90;;;;;;;3.59;64.97;100460.08;108096;1257;73883;-64
2023/03/03 05:25:12;;;;;;;18.90;12.50;;;;;;;3.61;64.87;100462.91;108079;1256;61580;-64
2023/03/03 05:27:42;;;;;;;18.70;12.50;;;;;;;3.64;65.01;100461.95;108061;1256;61164;-63
2023/03/03 05:30:12;;;;;;;16.90;10.90;;;;;;;3.66;64.83;100461.25;108075;1256;77898;-63
2023/03/03 05:32:45;;;;;;;18.90;12.60;;;;;;;3.67;64.99;100454.37;108075;1257;72266;-63
2023/03/03 05:35:14;;;;;;;19.90;12.00;;;;;;;3.69;65.05;100456.75;108056;1256;72908;-63
2023/03/03 05:37:46;;;;;;;17.40;11.60;;;;;;;3.69;65.08;100453.95;108077;1256;61295;-63
2023/03/03 05:40:15;;;;;;;17.50;11.70;;;;;;;3.70;65.14;100449.95;108051;1257;61955;-63
2023/03/03 05:42:45;;;;;;;16.20;10.90;;;;;;;3.72;65.02;100443.97;108101;1257;74882;-64
2023/03/03 05:45:14;;;;;;;18.20;11.30;;;;;;;3.76;65.18;100446.61;108102;1257;73399;-63
2023/03/03 05:47:43;;;;;;;17.70;11.70;;;;;;;3.79;65.15;100447.09;108128;1256;73182;-64
2023/03/03 05:50:11;;;;;;;17.90;11.80;;;;;;;3.79;65.13;100446.24;108065;1257;61221;-63
2023/03/03 05:52:40;;;;;;;18.40;11.50;;;;;;;3.78;65.00;100448.48;108068;1256;61131;-63
2023/03/03 05:55:10;;;;;;;18.10;11.40;;;;;;;3.77;64.98;100448.23;108098;1256;74065;-63
2023/03/03 05:57:41;;;;;;;19.00;11.60;;;;;;;3.78;65.17;100445.27;108080;1257;74357;-64
2023/03/03 06:00:11;;;;;;;16.80;11.10;;;;;;;3.81;65.14;100446.17;108078;1259;73000;-64
2023/03/03 06:02:41;;;;;;;18.80;12.10;;;;;;;3.82;65.05;100440.36;108038;1257;59577;-64
2023/03/03 06:05:10;;;;;;;18.60;11.10;;;;;;;3.85;65.22;100441.67;108040;1257;59400;-64
2023/03/03 06:07:39;;;;;;;14.70;10.10;;;;;;;3.88;65.07;100437.95;108073;1257;74095;-64
2023/03/03 06:10:07;;;;;;;16.20;10.50;;;;;;;3.91;65.01;100434.59;108081;1257;73013;-65
2023/03/03 06:12:43;;;;;;;18.40;11.10;;;;;;;3.92;65.00;100434.18;107969;1260;71449;-65
2023/03/03 06:15:12;;;;;;;17.70;10.90;;;;;;;3.93;65.14;100432.22;108041;1256;60998;-64
2023/03/03 06:17:43;;;;;;;15.00;10.00;;;;;;;3.96;64.93;100433.05;108081;1257;61310;-63
2023/03/03 06:20:11;;;;;;;14.30;9.70;;;;;;;4.01;64.94;100432.73;108045;1257;73668;-64
2023/03/03 06:22:40;;;;;;;15.00;9.30;;;;;;;4.07;64.86;100433.53;107986;1256;73019;-65
2023/03/03 06:25:10;;;;;;;17.40;11.30;;;;;;;4.09;64.66;100429.00;107848;1256;71372;-66
2023/03/03 06:27:40;;;;;;;15.70;10.40;;;;;;;4.13;64.62;100427.45;107873;1256;61988;-65
2023/03/03 06:30:10;;;;;;;14.40;9.50;;;;;;;4.18;64.57;100428.55;107920;1257;61237;-64
2023/03/03 06:32:38;;;;;;;14.30;9.50;;;;;;;4.24;64.41;100430.57;108104;1259;72530;-66
2023/03/03 06:35:07;;;;;;;16.40;10.60;;;;;;;4.27;64.20;100424.59;107800;1257;73210;-64
2023/03/03 06:37:37;;;;;;;14.50;9.50;;;;;;;4.32;64.17;100422.19;108073;1259;73464;-64
2023/03/03 06:40:07;;;;;;;15.30;9.90;;;;;;;4.38;63.96;100421.52;108063;1256;61474;-64
2023/03/03 06:42:37;;;;;;;;;;;;;;;4.41;63.62;100420.48;107941;1256;61946;-64
2023/03/03 06:45:08;;;;;;;15.80;9.80;;;;;;;4.39;63.55;100419.03;108080;1256;74935;-64
2023/03/03 06:47:36;;;;;;;13.50;9.10;;;;;;;4.41;63.56;100409.89;108048;1256;71752;-64
2023/03/03 06:50:08;;;;;;;15.00;10.40;;;;;;;4.48;63.42;100413.31;108107;1259;71650;-64
2023/03/03 06:52:36;;;;;;;15.90;10.40;;;;;;;4.54;63.34;100412.48;107927;1256;61255;-66
2023/03/03 06:55:16;;;;;;;16.40;10.30;;;;;;;4.58;62.99;100410.89;108120;1255;61106;-65
2023/03/03 06:57:49;;;;;;;16.90;10.20;;;;;;;4.62;63.08;100409.05;107892;1255;75732;-63
2023/03/03 07:00:28;;;;;;;15.40;10.40;;;;;;;4.67;62.74;100409.67;108029;1255;72630;-64
2023/03/03 07:03:00;;;;;;;17.70;11.30;;;;;;;4.73;62.67;100409.21;108114;1256;72791;-64
2023/03/03 07:05:31;;;;;;;21.60;12.70;;;;;;;4.79;62.61;100408.05;107943;1256;61268;-63
2023/03/03 07:08:01;;;;;;;16.50;10.60;;;;;;;4.81;62.05;100409.23;107988;1256;61242;-64
2023/03/03 07:10:30;;;;;;;16.00;10.30;;;;;;;4.81;61.90;100405.95;108004;1256;74829;-64
2023/03/03 07:13:23;;;;;;;17.60;10.90;;;;;;;4.80;61.63;100408.23;107964;1257;73341;-66
2023/03/03 07:15:53;;;;;;;17.10;10.20;;;;;;;4.79;61.58;100408.00;108058;1259;73583;-64
2023/03/03 07:18:41;;;;;;;15.50;9.20;;;;;;;4.80;61.41;100404.84;108085;1256;61138;-64
2023/03/03 07:21:21;;;;;;;13.10;8.70;;;;;;;4.81;61.28;100399.64;108050;1256;61067;-66
2023/03/03 07:23:52;;;;;;;13.40;8.70;;;;;;;4.84;61.16;100397.39;108109;1256;73858;-65
2023/03/03 07:26:24;;;;;;;15.20;9.50;;;;;;;4.85;60.89;100400.55;108071;1256;73007;-67
2023/03/03 07:28:54;;;;;;;;;;;;;;;4.85;60.69;100398.80;107851;1256;72984;-66
2023/03/03 07:31:38;;;;;;;13.90;8.90;;;;;;;4.85;60.62;100398.85;108056;1257;61004;-65
2023/03/03 07:34:23;;;;;;;15.30;9.10;;;;;;;4.85;60.47;100396.41;107869;1257;61137;-64
2023/03/03 07:37:01;;;;;;;12.60;8.30;;;;;;;4.90;60.53;100397.46;108107;1257;75881;-65
2023/03/03 07:39:32;;;;;;;14.70;9.70;;;;;;;4.92;60.05;100396.55;108100;1257;70689;-64
2023/03/03 07:42:33;;;;;;;14.50;9.40;;;;;;;4.93;60.20;100389.23;108073;1256;71675;-65
2023/03/03 07:45:38;;;;;;;17.40;10.60;;;;;;;5.00;59.96;100391.69;108051;1257;61166;-64
2023/03/03 07:48:12;;;;;;;17.70;11.20;;;;;;;5.02;59.69;100385.64;107900;1256;61147;-63
2023/03/03 07:50:41;;;;;;;19.80;11.20;;;;;;;5.03;59.62;100385.95;107841;1256;74925;-64
2023/03/03 07:53:33;;;;;;;19.50;11.20;;;;;;;5.04;59.50;100382.96;107931;1256;72049;-65
2023/03/03 07:56:29;;;;;;;19.70;12.00;;;;;;;5.05;59.47;100384.30;107924;1257;72199;-64
2023/03/03 07:58:58;;;;;;;16.80;10.50;;;;;;;5.09;59.31;100381.27;107783;1256;61260;-64
2023/03/03 08:01:47;;;;;;;17.20;10.70;;;;;;;5.12;59.10;100379.02;108063;1256;61141;-65
2023/03/03 08:04:19;;;;;;;17.10;10.30;;;;;;;5.16;58.93;100378.65;108104;1257;74513;-65
2023/03/03 08:06:51;;;;;;;16.00;10.00;;;;;;;5.16;58.82;100377.13;108117;1256;73701;-64
2023/03/03 08:09:30;;;;;;;16.20;9.60;;;;;;;5.15;58.65;100375.72;108105;1255;74032;-64
2023/03/03 08:12:05;;;;;;;18.00;10.30;;;;;;;5.15;58.73;100371.33;108067;1256;62428;-64
2023/03/03 08:14:36;;;;;;;16.20;10.30;;;;;;;5.17;58.63;100373.17;108079;1256;61112;-64
2023/03/03 08:17:18;;;;;;;21.00;12.50;;;;;;;5.18;58.67;100368.52;108119;1256;74445;-64
2023/03/03 08:19:49;;;;;;;18.50;11.90;;;;;;;5.24;58.56;100370.34;107835;1257;73693;-64
2023/03/03 08:22:24;;;;;;;15.00;9.70;;;;;;;5.29;58.40;100367.70;108107;1256;71279;-63
2023/03/03 08:24:52;;;;;;;14.10;8.70;;;;;;;5.32;58.14;100368.92;108113;1257;61119;-65
2023/03/03 08:27:21;;;;;;;15.20;9.90;;;;;;;5.36;58.00;100366.04;108089;1257;61519;-65
2023/03/03 08:29:49;;;;;;;16.30;10.30;;;;;;;5.42;58.03;100363.46;108150;1256;75023;-64
2023/03/03 08:32:17;;;;;;;13.40;9.00;;;;;;;5.49;57.74;100359.20;108035;1257;72004;-63
2023/03/03 08:34:46;;;;;;;13.20;8.70;;;;;;;5.54;57.38;100352.48;108096;1256;73819;-66
2023/03/03 08:37:15;;;;;;;13.90;9.10;;;;;;;5.58;56.94;100354.48;108067;1257;61251;-65
2023/03/03 08:39:44;;;;;;;13.20;8.50;;;;;;;5.64;56.92;100353.58;108052;1256;61408;-64
2023/03/03 08:42:13;;;;;;;14.80;9.10;;;;;;;5.70;56.45;100350.84;108102;1259;75499;-68
2023/03/03 08:44:44;;;;;;;14.80;9.00;;;;;;;5.73;55.97;100352.55;108154;1257;73839;-66
2023/03/03 08:47:14;;;;;;;14.40;8.50;;;;;;;5.70;55.58;100351.80;108114;1256;73681;-65
2023/03/03 08:49:43;;;;;;;15.40;8.80;;;;;;;5.71;55.57;100347.85;108120;1259;61145;-64
2023/03/03 08:52:11;;;;;;;15.10;8.80;;;;;;;5.77;55.55;100345.02;108129;1255;61246;-64
2023/03/03 08:54:40;;;;;;;12.30;8.50;;;;;;;5.87;55.51;100339.78;108073;1256;75524;-64
2023/03/03 08:57:08;;;;;;;13.90;8.80;;;;;;;5.96;54.91;100338.52;108087;1256;73654;-65
2023/03/03 08:59:37;;;;;;;13.90;8.50;;;;;;;6.02;54.30;100337.39;108060;1259;71992;-64
2023/03/03 09:02:06;;;;;;;13.40;8.70;;;;;;;6.04;54.04;100327.27;108023;1256;61253;-63
2023/03/03 09:04:35;;;;;;;13.80;8.40;;;;;;;6.09;53.54;100321.79;108005;1257;61367;-64
2023/03/03 09:07:04;;;;;;;12.10;8.30;;;;;;;6.12;53.33;100320.44;107960;1256;73812;-64
2023/03/03 09:09:32;;;;;;;13.30;8.70;;;;;;;6.20;53.24;100318.83;108001;1257;72114;-63
2023/03/03 09:12:16;;;;;;;13.80;8.90;;;;;;;6.29;52.91;100322.20;107991;1256;72992;-64
2023/03/03 09:14:45;;;;;;;12.00;8.20;;;;;;;6.40;52.25;100314.72;108092;1256;61233;-64
2023/03/03 09:17:40;;;;;;;13.70;8.70;;;;;;;6.49;51.82;100317.34;107919;1255;61297;-64
2023/03/03 09:20:33;;;;;;;13.80;9.00;;;;;;;6.56;51.26;100309.64;108054;1257;74579;-64
2023/03/03 09:23:38;;;;;;;13.80;8.50;;;;;;;6.62;50.47;100305.92;108071;1257;73079;-65
2023/03/03 09:26:30;;;;;;;11.60;7.70;;;;;;;6.67;50.02;100306.96;108067;1256;72908;-64
2023/03/03 09:29:14;;;;;;;14.50;8.70;;;;;;;6.73;50.17;100300.67;107856;1257;61204;-64
2023/03/03 09:32:00;;;;;;;11.70;7.80;;;;;;;6.78;49.70;100299.32;108129;1255;61142;-64
2023/03/03 09:34:48;;;;;;;13.60;8.20;;;;;;;6.84;49.35;100292.38;108072;1255;73847;-64
2023/03/03 09:37:33;;;;;;;13.30;8.00;;;;;;;6.90;49.15;100287.31;108106;1257;72384;-64
2023/03/03 09:40:18;;;;;;;11.90;7.80;;;;;;;6.99;48.67;100285.66;107862;1257;72708;-65
2023/03/03 09:42:55;;;;;;;11.70;7.40;;;;;;;7.03;47.95;100283.98;107786;1256;61163;-64
2023/03/03 09:45:36;;;;;;;12.10;7.90;;;;;;;7.04;47.76;100277.16;108058;1256;61228;-64
2023/03/03 09:48:34;;;;;;;12.20;8.20;;;;;;;7.06;47.80;100273.46;108064;1255;73911;-64
2023/03/03 09:51:21;;;;;;;12.10;7.80;;;;;;;7.14;47.54;100269.09;107828;1257;74013;-64
2023/03/03 09:54:03;;;;;;;14.30;8.80;;;;;;;7.19;47.32;100263.05;108040;1256;73546;-64
2023/03/03 09:56:34;;;;;;;13.00;7.70;;;;;;;7.17;47.39;100257.30;108047;1256;61202;-64
2023/03/03 09:59:08;;;;;;;11.80;8.30;;;;;;;7.13;47.01;100249.67;108088;1256;61247;-64
2023/03/03 10:01:52;;;;;;;11.50;7.20;;;;;;;7.05;47.00;100251.52;108070;1256;74196;-64
2023/03/03 10:04:30;;;;;;;11.60;7.30;;;;;;;7.01;46.75;100245.30;108067;1257;71852;-63
2023/03/03 10:07:26;;;;;;;11.20;6.80;;;;;;;6.99;46.67;100242.98;108056;1257;73125;-64
2023/03/03 10:10:26;;;;;;;11.40;7.20;;;;;;;6.98;46.51;100233.81;107999;1256;61215;-65
2023/03/03 10:13:40;;;;;;;10.70;6.80;;;;;;;7.00;46.54;100232.95;108070;1255;61330;-64
2023/03/03 10:16:21;;;;;;;11.20;7.20;;;;;;;7.05;46.52;100228.98;107499;1262;75661;-64
2023/03/03 10:19:01;;;;;;;11.70;7.10;;;;;;;7.06;46.20;100222.09;107492;1263;73138;-65
2023/03/03 10:21:39;;;;;;;10.00;6.50;;;;;;;7.10;46.07;100218.81;107942;1256;72119;-65
2023/03/03 10:24:30;;;;;;;13.10;7.10;;;;;;;7.19;46.01;100220.60;108095;1257;61284;-64
2023/03/03 10:27:33;;;;;;;12.40;7.50;;;;;;;7.33;45.52;100215.49;108086;1257;61366;-65
2023/03/03 10:30:03;;;;;;;12.60;7.90;;;;;;;7.39;45.50;100205.91;108064;1256;75859;-64
2023/03/03 10:32:48;;;;;;;10.80;7.00;;;;;;;7.42;45.24;100211.48;108105;1256;72266;-65
2023/03/03 10:35:17;;;;;;;12.30;6.90;;;;;;;7.38;44.93;100208.45;108066;1256;72489;-64
2023/03/03 10:38:01;;;;;;;12.60;7.60;;;;;;;7.39;45.18;100200.65;108062;1257;61217;-64
2023/03/03 10:40:41;;;;;;;11.10;7.30;;;;;;;7.44;45.22;100199.72;108035;1256;61327;-65
2023/03/03 10:43:34;;;;;;;14.40;8.00;;;;;;;7.46;45.22;100187.53;108113;1257;75541;-66
2023/03/03 10:46:24;;;;;;;10.40;6.70;;;;;;;7.51;45.19;100180.47;107812;1256;73733;-64
2023/03/03 10:48:55;;;;;;;11.20;7.30;;;;;;;7.61;44.88;100172.35;108044;1256;73687;-65
2023/03/03 10:51:56;;;;;;;10.60;7.00;;;;;;;7.71;44.67;100167.27;108080;1256;61105;-64
2023/03/03 10:54:43;;;;;;;11.20;6.70;;;;;;;7.88;44.74;100155.56;108094;1255;61310;-64
2023/03/03 10:57:30;;;;;;;10.90;6.90;;;;;;;8.05;44.16;100144.09;108081;1255;74959;-63
2023/03/03 11:00:43;;;;;;;10.10;6.40;;;;;;;8.19;43.68;100142.27;108075;1257;72431;-67
2023/03/03 11:04:08;;;;;;;9.20;6.10;;;;;;;8.28;42.76;100135.54;108006;1257;70930;-65
2023/03/03 11:07:14;;;;;;;9.50;6.00;;;;;;;8.33;42.97;100122.92;107418;1262;61337;-65
2023/03/03 11:09:51;;;;;;;9.70;6.20;;;;;;;8.36;42.18;100111.46;108044;1255;61183;-67
2023/03/03 11:12:46;;;;;;;11.10;6.30;;;;;;;8.33;42.01;100117.61;108085;1257;74586;-66
2023/03/03 11:16:13;;;;;;;9.70;6.50;;;;;;;8.30;42.32;100113.85;108056;1256;71838;-66
2023/03/03 11:19:20;;;;;;;7.30;4.30;;;;;;;8.42;41.74;100108.30;107467;1263;71716;-63
2023/03/03 11:22:14;;;;;;;6.30;3.90;;;;;;;8.61;41.11;100106.11;108044;1257;61154;-64
2023/03/03 11:24:50;;;;;;;6.90;4.00;;;;;;;8.88;40.25;100105.81;108037;1256;61555;-65
2023/03/03 11:27:47;;;;;;;7.10;4.70;;;;;;;8.91;40.14;100100.23;108103;1257;75202;-65
2023/03/03 11:30:16;;;;;;;9.10;5.10;;;;;;;8.89;40.14;100091.01;107996;1257;73241;-66
2023/03/03 11:32:49;;;;;;;7.50;4.30;;;;;;;8.85;40.28;100098.51;108003;1256;72261;-65
2023/03/03 11:35:28;;;;;;;7.10;4.30;;;;;;;8.89;39.87;100097.09;107951;1257;60289;-66
2023/03/03 11:38:03;;;;;;;7.90;4.40;;;;;;;8.89;40.03;100087.25;107989;1257;61131;-64
2023/03/03 11:40:52;;;;;;;6.00;3.20;;;;;;;8.87;39.91;100084.52;108043;1257;75720;-63
2023/03/03 11:43:23;;;;;;;9.10;3.90;;;;;;;8.82;39.56;100090.92;107994;1257;71820;-64
2023/03/03 11:46:18;;;;;;;6.00;4.00;;;;;;;8.68;39.69;100086.36;108089;1256;73865;-64
2023/03/03 11:48:56;;;;;;;7.10;4.30;;;;;;;8.57;40.17;100088.25;108106;1255;61184;-65
2023/03/03 11:52:19;;;;;;;7.30;4.40;;;;;;;8.45;40.32;100085.89;108082;1256;61192;-64
2023/03/03 11:55:13;;;;;;;6.40;3.80;;;;;;;8.28;40.51;100082.00;107488;1263;75897;-64